MSR905 HEGN-HUEN
Flight info
| Callsign | MSR905 |
|---|---|
| Flight time | N/A |
| Altitude | 33000 |
| Route | KUSAT1B KUSAT R650 ASRAB/N0456F340 L604 LXR/N0451F330 A727 BOVAR/N0459F350 A727 NUBAR L554 JUB G656 ATUGA UG656 UVBAX UVBAX1A |
| Aircraft | B738/M-SDE2E3FGHIRWXY/LB1 |
Departure
| Time | 2026-04-30 14:10 |
|---|---|
| Airport | Hurghada International Airport (HEGN) |
Arrival
| Time | N/A |
|---|---|
| Airport | Entebbe International Airport (HUEN) |
| Time | Latitude | Longitude | Altitude | Speed | Heading |
|---|---|---|---|---|---|
| 2026-04-30 13:50 | 27.18015 | 33.80601 | 58 ft | 0 kts | 75° |
| 2026-04-30 14:02 | 27.18013 | 33.80595 | 58 ft | 2 kts | 70° |
| 2026-04-30 14:03 | 27.18008 | 33.80580 | 58 ft | 2 kts | 68° |
| 2026-04-30 14:03 | 27.18003 | 33.80564 | 58 ft | 2 kts | 70° |
| 2026-04-30 14:03 | 27.17997 | 33.80549 | 58 ft | 2 kts | 69° |
| 2026-04-30 14:03 | 27.17992 | 33.80533 | 58 ft | 2 kts | 69° |
| 2026-04-30 14:04 | 27.17987 | 33.80518 | 58 ft | 2 kts | 69° |
| 2026-04-30 14:04 | 27.17982 | 33.80503 | 58 ft | 1 kts | 72° |
| 2026-04-30 14:04 | 27.17983 | 33.80495 | 58 ft | 1 kts | 134° |
| 2026-04-30 14:04 | 27.17988 | 33.80490 | 58 ft | 0 kts | 171° |
| 2026-04-30 14:05 | 27.17995 | 33.80489 | 58 ft | 0 kts | 166° |
| 2026-04-30 14:06 | 27.17880 | 33.80499 | 58 ft | 18 kts | 210° |
| 2026-04-30 14:07 | 27.17662 | 33.80329 | 58 ft | 31 kts | 167° |
| 2026-04-30 14:07 | 27.17412 | 33.80402 | 58 ft | 42 kts | 165° |
| 2026-04-30 14:07 | 27.17108 | 33.80487 | 58 ft | 48 kts | 167° |
| 2026-04-30 14:08 | 27.16455 | 33.80683 | 58 ft | 46 kts | 166° |
| 2026-04-30 14:08 | 27.16187 | 33.80755 | 58 ft | 21 kts | 188° |
| 2026-04-30 14:08 | 27.16160 | 33.80601 | 58 ft | 3 kts | 340° |
| 2026-04-30 14:09 | 27.16163 | 33.80600 | 58 ft | 0 kts | 341° |
| 2026-04-30 14:09 | 27.16168 | 33.80598 | 58 ft | 5 kts | 341° |
| 2026-04-30 14:09 | 27.17287 | 33.80266 | 58 ft | 152 kts | 345° |
| 2026-04-30 14:10 | 27.18463 | 33.79922 | 178 ft | 192 kts | 345° |
| 2026-04-30 14:10 | 27.19727 | 33.79493 | 898 ft | 184 kts | 342° |
| 2026-04-30 14:10 | 27.20971 | 33.79008 | 453 ft | 194 kts | 338° |
| 2026-04-30 14:10 | 27.22286 | 33.78374 | 614 ft | 225 kts | 338° |
| 2026-04-30 14:11 | 27.23952 | 33.77878 | 596 ft | 253 kts | 351° |
| 2026-04-30 14:11 | 27.25613 | 33.77529 | 955 ft | 228 kts | 345° |
| 2026-04-30 14:11 | 27.26940 | 33.77127 | 1865 ft | 177 kts | 345° |
| 2026-04-30 14:11 | 27.27996 | 33.76797 | 2516 ft | 177 kts | 344° |
| 2026-04-30 14:12 | 27.29193 | 33.76410 | 2893 ft | 177 kts | 344° |
| 2026-04-30 14:12 | 27.30388 | 33.76018 | 3325 ft | 179 kts | 343° |
| 2026-04-30 14:12 | 27.31602 | 33.75618 | 3563 ft | 189 kts | 343° |
| 2026-04-30 14:12 | 27.32901 | 33.75077 | 3845 ft | 214 kts | 326° |
| 2026-04-30 14:13 | 27.33893 | 33.73715 | 4138 ft | 239 kts | 288° |
| 2026-04-30 14:13 | 27.33977 | 33.71956 | 4456 ft | 260 kts | 255° |
| 2026-04-30 14:13 | 27.33120 | 33.70049 | 4816 ft | 283 kts | 236° |
| 2026-04-30 14:13 | 27.32113 | 33.68004 | 5149 ft | 307 kts | 248° |
| 2026-04-30 14:14 | 27.31389 | 33.65683 | 5714 ft | 321 kts | 252° |
| 2026-04-30 14:14 | 27.30674 | 33.63282 | 6420 ft | 328 kts | 251° |
| 2026-04-30 14:14 | 27.29937 | 33.60829 | 7149 ft | 335 kts | 251° |
| 2026-04-30 14:14 | 27.29350 | 33.58854 | 7724 ft | 339 kts | 252° |
| 2026-04-30 14:15 | 27.28456 | 33.55837 | 8608 ft | 345 kts | 252° |
| 2026-04-30 14:15 | 27.27584 | 33.53333 | 9318 ft | 349 kts | 240° |
| 2026-04-30 14:15 | 27.25995 | 33.51254 | 10052 ft | 352 kts | 216° |
| 2026-04-30 14:15 | 27.23783 | 33.50166 | 10779 ft | 354 kts | 189° |
| 2026-04-30 14:16 | 27.21331 | 33.50279 | 11516 ft | 355 kts | 165° |
| 2026-04-30 14:16 | 27.19085 | 33.51091 | 12226 ft | 356 kts | 163° |
| 2026-04-30 14:16 | 27.17121 | 33.51675 | 12815 ft | 357 kts | 167° |
| 2026-04-30 14:17 | 27.12077 | 33.53045 | 14334 ft | 358 kts | 166° |
| 2026-04-30 14:17 | 27.09681 | 33.53743 | 15059 ft | 357 kts | 166° |
| 2026-04-30 14:17 | 27.07286 | 33.54444 | 15786 ft | 356 kts | 166° |
| 2026-04-30 14:17 | 27.04906 | 33.55143 | 16511 ft | 354 kts | 165° |
| 2026-04-30 14:18 | 27.02522 | 33.55848 | 17243 ft | 352 kts | 165° |
| 2026-04-30 14:18 | 27.00159 | 33.56548 | 17973 ft | 349 kts | 165° |
| 2026-04-30 14:18 | 26.95495 | 33.57694 | 19424 ft | 341 kts | 172° |
| 2026-04-30 14:19 | 26.90868 | 33.58468 | 20883 ft | 330 kts | 171° |
| 2026-04-30 14:19 | 26.88641 | 33.58868 | 21607 ft | 323 kts | 171° |
| 2026-04-30 14:19 | 26.86464 | 33.59255 | 22330 ft | 315 kts | 171° |
| 2026-04-30 14:20 | 26.84340 | 33.59633 | 23057 ft | 305 kts | 171° |
| 2026-04-30 14:20 | 26.82275 | 33.60002 | 23788 ft | 294 kts | 171° |
| 2026-04-30 14:20 | 26.78151 | 33.59658 | 24142 ft | 310 kts | 203° |
| 2026-04-30 14:21 | 26.76138 | 33.58624 | 24213 ft | 323 kts | 205° |
| 2026-04-30 14:21 | 26.74053 | 33.57578 | 24261 ft | 336 kts | 204° |
| 2026-04-30 14:21 | 26.69603 | 33.55402 | 24358 ft | 361 kts | 204° |
| 2026-04-30 14:22 | 26.67255 | 33.54231 | 24408 ft | 374 kts | 204° |
| 2026-04-30 14:22 | 26.62359 | 33.51792 | 24506 ft | 397 kts | 204° |
| 2026-04-30 14:22 | 26.59794 | 33.50513 | 24556 ft | 408 kts | 204° |
| 2026-04-30 14:23 | 26.54452 | 33.47848 | 24656 ft | 428 kts | 204° |
| 2026-04-30 14:23 | 26.48889 | 33.45075 | 24754 ft | 446 kts | 204° |
| 2026-04-30 14:24 | 26.43099 | 33.42191 | 24854 ft | 462 kts | 204° |
| 2026-04-30 14:24 | 26.40144 | 33.40722 | 24970 ft | 468 kts | 204° |
| 2026-04-30 14:25 | 26.34142 | 33.37740 | 25398 ft | 474 kts | 204° |
| 2026-04-30 14:25 | 26.28099 | 33.34741 | 25867 ft | 477 kts | 204° |
| 2026-04-30 14:26 | 26.21989 | 33.31713 | 26532 ft | 476 kts | 204° |
| 2026-04-30 14:26 | 26.18995 | 33.30230 | 26820 ft | 476 kts | 204° |
| 2026-04-30 14:26 | 26.12935 | 33.27231 | 27463 ft | 474 kts | 204° |
| 2026-04-30 14:27 | 26.09905 | 33.25733 | 27767 ft | 473 kts | 204° |
| 2026-04-30 14:27 | 26.06884 | 33.24240 | 28072 ft | 473 kts | 204° |
| 2026-04-30 14:27 | 26.03900 | 33.22767 | 28363 ft | 472 kts | 204° |
| 2026-04-30 14:28 | 25.97899 | 33.19805 | 28939 ft | 471 kts | 204° |
| 2026-04-30 14:28 | 25.94913 | 33.18333 | 29218 ft | 470 kts | 204° |
| 2026-04-30 14:28 | 25.91926 | 33.16861 | 29493 ft | 470 kts | 204° |
| 2026-04-30 14:28 | 25.88963 | 33.15402 | 29762 ft | 469 kts | 204° |
| 2026-04-30 14:29 | 25.83309 | 33.11721 | 30249 ft | 469 kts | 221° |
| 2026-04-30 14:29 | 25.79386 | 33.05994 | 30739 ft | 467 kts | 244° |
| 2026-04-30 14:30 | 25.77244 | 32.95524 | 31459 ft | 465 kts | 263° |
| 2026-04-30 14:31 | 25.76387 | 32.88417 | 31870 ft | 465 kts | 261° |
| 2026-04-30 14:31 | 25.74320 | 32.81608 | 32266 ft | 464 kts | 239° |
| 2026-04-30 14:31 | 25.72508 | 32.78756 | 32512 ft | 463 kts | 229° |
| 2026-04-30 14:32 | 25.67357 | 32.74503 | 32810 ft | 463 kts | 202° |
| 2026-04-30 14:32 | 25.64319 | 32.73339 | 32994 ft | 463 kts | 197° |
| 2026-04-30 14:33 | 25.58147 | 32.71186 | 32999 ft | 465 kts | 198° |
| 2026-04-30 14:33 | 25.48930 | 32.67896 | 32999 ft | 462 kts | 198° |
| 2026-04-30 14:34 | 25.42825 | 32.65761 | 33000 ft | 462 kts | 198° |
| 2026-04-30 14:34 | 25.36688 | 32.63627 | 33000 ft | 463 kts | 197° |
| 2026-04-30 14:35 | 25.27537 | 32.60460 | 32999 ft | 463 kts | 197° |
| 2026-04-30 14:36 | 25.21839 | 32.58493 | 33000 ft | 463 kts | 197° |
| 2026-04-30 14:36 | 25.15478 | 32.56302 | 32999 ft | 463 kts | 197° |
| 2026-04-30 14:37 | 25.09445 | 32.54227 | 33000 ft | 463 kts | 197° |
| 2026-04-30 14:37 | 25.03337 | 32.52128 | 33000 ft | 463 kts | 197° |
| 2026-04-30 14:38 | 24.97201 | 32.50023 | 33000 ft | 463 kts | 197° |
| 2026-04-30 14:38 | 24.91118 | 32.47937 | 33000 ft | 463 kts | 197° |
| 2026-04-30 14:39 | 24.85668 | 32.46071 | 32999 ft | 463 kts | 197° |
| 2026-04-30 14:40 | 24.72307 | 32.41505 | 32999 ft | 463 kts | 197° |